Time;durP1;ratioP1;P1;durP2;ratioP2;P2;SDS_P1;SDS_P2;PMS_P1;PMS_P2;Temp;Humidity;BMP_temperature;BMP_pressure;BME280_temperature;BME280_humidity;BME280_pressure;Samples;Min_cycle;Max_cycle;Signal;HPM_P1;HPM_P2
2023/08/19 00:01:14;;;;;;;0.10;0.10;;;;;;;23.82;100.00;99807.94;5089729;28;20138;-62
2023/08/19 00:03:39;;;;;;;0.10;0.10;;;;;;;23.78;100.00;99805.63;5089248;28;20424;-62
2023/08/19 00:06:10;;;;;;;0.10;0.10;;;;;;;23.78;100.00;99816.50;5085778;28;20077;-62
2023/08/19 00:08:36;;;;;;;0.10;0.10;;;;;;;23.78;100.00;99811.06;5089325;28;20039;-62
2023/08/19 00:11:03;;;;;;;0.10;0.10;;;;;;;23.75;100.00;99806.78;5083699;28;20365;-62
2023/08/19 00:13:29;;;;;;;0.10;0.10;;;;;;;23.81;100.00;99806.22;5071076;28;20598;-63
2023/08/19 00:15:55;;;;;;;0.10;0.10;;;;;;;23.77;100.00;99807.50;5068049;28;20560;-62
2023/08/19 00:18:21;;;;;;;0.08;0.08;;;;;;;23.82;100.00;99807.09;5072417;28;20027;-62
2023/08/19 00:20:47;;;;;;;0.10;0.10;;;;;;;23.75;100.00;99816.78;5085785;28;20032;-62
2023/08/19 00:23:15;;;;;;;0.10;0.10;;;;;;;23.68;100.00;99815.59;5087676;28;20060;-62
2023/08/19 00:25:40;;;;;;;0.10;0.10;;;;;;;23.58;100.00;99817.41;5083606;28;20095;-62
2023/08/19 00:28:06;;;;;;;0.10;0.10;;;;;;;23.50;100.00;99812.69;5087201;28;20757;-62
2023/08/19 00:30:31;;;;;;;0.10;0.10;;;;;;;23.44;100.00;99819.50;5087721;28;20089;-62
2023/08/19 00:32:57;;;;;;;0.10;0.10;;;;;;;23.39;100.00;99812.78;5088064;28;20024;-62
2023/08/19 00:35:22;;;;;;;0.10;0.10;;;;;;;23.35;100.00;99814.03;5055993;28;20472;-62
2023/08/19 00:37:48;;;;;;;0.10;0.10;;;;;;;23.29;100.00;99812.72;5067918;28;20035;-62
2023/08/19 00:40:16;;;;;;;0.10;0.10;;;;;;;23.23;100.00;99815.06;5068689;28;20021;-62
2023/08/19 00:42:42;;;;;;;0.10;0.10;;;;;;;23.21;100.00;99817.09;5068534;28;20098;-62
2023/08/19 00:45:09;;;;;;;0.10;0.10;;;;;;;23.18;100.00;99818.19;5086183;28;20027;-62
2023/08/19 00:47:36;;;;;;;0.10;0.10;;;;;;;23.16;100.00;99813.91;5088586;28;20028;-62
2023/08/19 00:50:04;;;;;;;0.10;0.10;;;;;;;23.14;100.00;99822.19;5084618;28;20115;-62
2023/08/19 00:52:30;;;;;;;0.10;0.10;;;;;;;23.10;100.00;99815.28;5087640;28;20065;-62
2023/08/19 00:54:55;;;;;;;0.10;0.10;;;;;;;23.09;100.00;99821.72;5082653;28;20049;-62
2023/08/19 00:57:21;;;;;;;0.10;0.10;;;;;;;23.04;100.00;99810.41;5067351;28;20021;-62
2023/08/19 00:59:47;;;;;;;0.10;0.10;;;;;;;22.99;100.00;99811.78;5068771;28;20024;-62
2023/08/19 01:02:12;;;;;;;0.10;0.10;;;;;;;22.94;100.00;99811.31;5088108;28;20016;-62
2023/08/19 01:04:38;;;;;;;0.10;0.10;;;;;;;22.91;100.00;99815.19;5080034;28;20074;-62
2023/08/19 01:07:20;;;;;;;0.10;0.10;;;;;;;22.90;100.00;99813.44;5067587;28;20448;-62
2023/08/19 01:10:11;;;;;;;0.10;0.10;;;;;;;22.89;100.00;99806.31;5067736;28;20048;-62
2023/08/19 01:12:46;;;;;;;0.10;0.10;;;;;;;22.89;100.00;99805.44;5069764;28;20143;-62
2023/08/19 01:15:15;;;;;;;0.10;0.10;;;;;;;22.88;100.00;99812.72;5060076;28;20623;-62
2023/08/19 01:17:41;;;;;;;0.10;0.10;;;;;;;22.87;100.00;99802.84;5047114;28;20032;-62
2023/08/19 01:20:09;;;;;;;0.10;0.10;;;;;;;22.89;100.00;99811.72;5063230;28;20452;-62
2023/08/19 01:22:55;;;;;;;0.10;0.10;;;;;;;22.87;100.00;99808.28;5067209;28;20025;-63
2023/08/19 01:25:22;;;;;;;0.10;0.10;;;;;;;22.82;100.00;99805.09;5054261;28;20040;-62
2023/08/19 01:27:47;;;;;;;0.10;0.10;;;;;;;22.73;100.00;99811.34;5050707;28;20033;-62
2023/08/19 01:30:14;;;;;;;0.10;0.10;;;;;;;22.70;100.00;99802.59;5055101;28;20025;-62
2023/08/19 01:32:40;;;;;;;0.17;0.17;;;;;;;22.64;100.00;99806.69;5056686;28;20040;-62
2023/08/19 01:35:06;;;;;;;0.10;0.10;;;;;;;22.58;100.00;99812.66;5070929;28;20028;-62
2023/08/19 01:37:54;;;;;;;0.10;0.10;;;;;;;22.57;100.00;99812.78;5074600;28;20395;-62
2023/08/19 01:40:22;;;;;;;0.10;0.10;;;;;;;22.54;100.00;99819.31;5058456;28;20070;-62
2023/08/19 01:42:49;;;;;;;0.17;0.17;;;;;;;22.47;100.00;99820.78;5054503;28;20029;-62
2023/08/19 01:45:16;;;;;;;0.10;0.10;;;;;;;22.44;100.00;99815.63;5057011;28;20507;-62
2023/08/19 01:47:44;;;;;;;0.10;0.10;;;;;;;22.45;100.00;99819.19;5054548;28;20104;-62
2023/08/19 01:50:09;;;;;;;0.10;0.10;;;;;;;22.44;100.00;99815.63;5058624;28;20115;-62
2023/08/19 01:52:36;;;;;;;0.10;0.10;;;;;;;22.41;100.00;99824.00;5070981;28;20119;-62
2023/08/19 01:55:02;;;;;;;0.10;0.10;;;;;;;22.38;100.00;99810.72;5074318;28;20024;-62
2023/08/19 01:57:27;;;;;;;0.10;0.10;;;;;;;22.35;100.00;99813.69;5074541;28;20106;-62
2023/08/19 01:59:54;;;;;;;0.10;0.10;;;;;;;22.32;100.00;99818.50;5072220;28;20048;-62
2023/08/19 02:02:20;;;;;;;0.10;0.10;;;;;;;22.29;100.00;99818.75;5054493;28;20079;-62
2023/08/19 02:04:46;;;;;;;0.10;0.10;;;;;;;22.25;100.00;99820.88;5072730;28;20052;-62
2023/08/19 02:07:11;;;;;;;0.10;0.10;;;;;;;22.17;100.00;99823.34;5072361;28;20109;-62
2023/08/19 02:09:38;;;;;;;0.10;0.10;;;;;;;22.07;100.00;99816.97;5068815;28;20111;-62
2023/08/19 02:12:04;;;;;;;0.10;0.10;;;;;;;22.06;100.00;99815.25;5084350;28;20040;-62
2023/08/19 02:14:29;;;;;;;0.10;0.10;;;;;;;22.05;100.00;99827.06;5089963;28;20561;-62
2023/08/19 02:16:54;;;;;;;0.10;0.10;;;;;;;22.04;100.00;99826.19;5091872;28;20020;-62
2023/08/19 02:19:21;;;;;;;0.13;0.13;;;;;;;21.99;100.00;99827.59;5093491;28;20520;-62
2023/08/19 02:21:46;;;;;;;0.10;0.10;;;;;;;21.94;100.00;99821.69;5094851;28;20024;-62
2023/08/19 02:24:12;;;;;;;0.10;0.10;;;;;;;21.99;100.00;99827.59;5090113;28;20111;-62
2023/08/19 02:26:37;;;;;;;0.10;0.10;;;;;;;21.99;100.00;99830.31;5074241;28;20028;-62
2023/08/19 02:29:03;;;;;;;0.10;0.10;;;;;;;21.98;100.00;99828.56;5074297;28;20134;-62
2023/08/19 02:31:28;;;;;;;0.10;0.10;;;;;;;21.96;100.00;99830.53;5073845;28;20118;-62
2023/08/19 02:33:54;;;;;;;0.10;0.10;;;;;;;21.91;100.00;99833.63;5081936;28;20111;-62
2023/08/19 02:36:19;;;;;;;0.10;0.10;;;;;;;21.89;100.00;99838.28;5094378;28;20103;-62
2023/08/19 02:38:45;;;;;;;0.20;0.20;;;;;;;21.86;100.00;99835.00;5090445;28;20480;-62
2023/08/19 02:41:10;;;;;;;0.10;0.10;;;;;;;21.85;100.00;99838.69;5070140;28;20078;-62
2023/08/19 02:43:36;;;;;;;0.10;0.10;;;;;;;21.88;100.00;99828.47;5070760;28;20791;-62
2023/08/19 02:46:02;;;;;;;0.10;0.10;;;;;;;21.93;100.00;99837.06;5073003;28;20028;-62
2023/08/19 02:48:27;;;;;;;0.10;0.10;;;;;;;21.94;100.00;99835.22;5070611;28;20031;-62
2023/08/19 02:50:56;;;;;;;0.10;0.10;;;;;;;21.90;100.00;99839.16;5073655;28;20128;-62
2023/08/19 02:53:22;;;;;;;0.10;0.10;;;;;;;21.85;100.00;99839.53;5090811;28;20121;-62
2023/08/19 02:55:51;;;;;;;0.10;0.10;;;;;;;21.80;100.00;99830.94;5089898;28;20095;-62
2023/08/19 02:58:16;;;;;;;0.13;0.13;;;;;;;21.79;100.00;99836.47;5074623;28;20578;-62
2023/08/19 03:00:42;;;;;;;0.10;0.10;;;;;;;21.78;100.00;99848.28;5069721;28;20028;-62
2023/08/19 03:03:08;;;;;;;0.10;0.10;;;;;;;21.78;100.00;99845.56;5072112;28;20025;-62
2023/08/19 03:05:37;;;;;;;0.13;0.13;;;;;;;21.78;100.00;99842.84;5087067;28;20410;-62
2023/08/19 03:08:04;;;;;;;0.20;0.20;;;;;;;21.79;100.00;99841.91;5070464;28;20511;-62
2023/08/19 03:10:32;;;;;;;0.20;0.20;;;;;;;21.79;100.00;99841.91;5068024;28;20020;-62
2023/08/19 03:12:59;;;;;;;0.10;0.10;;;;;;;21.83;100.00;99846.94;5077496;28;20060;-63
2023/08/19 03:15:24;;;;;;;0.10;0.10;;;;;;;21.85;100.00;99844.97;5076204;28;20464;-62
2023/08/19 03:17:50;;;;;;;0.13;0.13;;;;;;;21.83;100.00;99851.47;5069396;28;20031;-62
2023/08/19 03:20:16;;;;;;;0.20;0.20;;;;;;;21.83;100.00;99848.75;5069999;28;20489;-62
2023/08/19 03:22:41;;;;;;;0.20;0.20;;;;;;;21.80;100.00;99851.72;5071437;28;20392;-62
2023/08/19 03:25:07;;;;;;;0.20;0.20;;;;;;;21.77;100.00;99842.03;5069119;28;20055;-62
2023/08/19 03:27:32;;;;;;;0.17;0.17;;;;;;;21.76;100.00;99842.13;5077391;28;20062;-62
2023/08/19 03:29:57;;;;;;;0.17;0.17;;;;;;;21.77;100.00;99847.44;5089849;28;20089;-63
2023/08/19 03:32:23;;;;;;;0.20;0.20;;;;;;;21.75;100.00;99845.78;5090111;28;20050;-62
2023/08/19 03:34:48;;;;;;;0.20;0.20;;;;;;;21.72;100.00;99843.34;5090084;28;20081;-62
2023/08/19 03:37:14;;;;;;;0.10;0.10;;;;;;;21.70;100.00;99850.72;5076719;28;20032;-62
2023/08/19 03:39:39;;;;;;;0.10;0.10;;;;;;;21.67;100.00;99845.56;5069754;28;20021;-62
2023/08/19 03:42:04;;;;;;;0.10;0.10;;;;;;;21.66;100.00;99849.25;5076850;28;20031;-62
2023/08/19 03:44:30;;;;;;;0.17;0.17;;;;;;;21.64;100.00;99846.69;5089880;28;20467;-62
2023/08/19 03:46:55;;;;;;;0.20;0.20;;;;;;;21.61;100.00;99848.75;5089272;28;20028;-62
2023/08/19 03:49:21;;;;;;;0.10;0.10;;;;;;;21.56;100.00;99851.84;5087493;28;20097;-62
2023/08/19 03:51:46;;;;;;;0.20;0.20;;;;;;;21.52;100.00;99852.19;5089245;28;20019;-62
2023/08/19 03:54:11;;;;;;;0.10;0.10;;;;;;;21.50;100.00;99838.78;5083413;28;20131;-63
2023/08/19 03:56:37;;;;;;;0.20;0.20;;;;;;;21.47;100.00;99851.69;5088778;28;20553;-61
2023/08/19 03:59:02;;;;;;;0.17;0.17;;;;;;;21.49;100.00;99841.63;5088497;28;20035;-62
2023/08/19 04:01:28;;;;;;;0.10;0.10;;;;;;;21.36;100.00;99841.75;5088364;28;20035;-62
2023/08/19 04:03:53;;;;;;;0.20;0.20;;;;;;;21.32;100.00;99855.63;5084764;28;20494;-62
2023/08/19 04:06:18;;;;;;;0.10;0.10;;;;;;;21.25;100.00;99851.69;5086620;28;20114;-62
2023/08/19 04:08:44;;;;;;;0.20;0.20;;;;;;;21.20;100.00;99854.78;5088166;28;20035;-62
2023/08/19 04:11:10;;;;;;;0.20;0.20;;;;;;;21.18;100.00;99853.16;5087913;28;20048;-62
2023/08/19 04:13:35;;;;;;;0.10;0.10;;;;;;;21.18;100.00;99863.97;5085594;28;20126;-62
2023/08/19 04:16:05;;;;;;;0.20;0.20;;;;;;;21.16;100.00;99861.38;5073404;28;20024;-62
2023/08/19 04:18:31;;;;;;;0.17;0.17;;;;;;;21.17;100.00;99864.97;5088880;28;20119;-62
2023/08/19 04:20:57;;;;;;;0.20;0.20;;;;;;;21.16;100.00;99861.38;5071449;28;20051;-62
2023/08/19 04:23:22;;;;;;;0.20;0.20;;;;;;;21.15;100.00;99858.81;5068076;28;20035;-62
2023/08/19 04:25:48;;;;;;;0.20;0.20;;;;;;;21.14;100.00;99873.28;5070263;28;20036;-62
2023/08/19 04:28:14;;;;;;;0.20;0.20;;;;;;;21.16;100.00;99863.22;5067722;28;20133;-62
2023/08/19 04:30:40;;;;;;;0.20;0.20;;;;;;;21.16;100.00;99876.75;5068697;28;20028;-62
2023/08/19 04:33:06;;;;;;;0.20;0.20;;;;;;;21.18;100.00;99874.78;5069954;28;20028;-62
2023/08/19 04:35:31;;;;;;;0.20;0.20;;;;;;;21.17;100.00;99878.50;5074188;28;20047;-63
2023/08/19 04:37:57;;;;;;;0.10;0.10;;;;;;;21.19;100.00;99887.31;5067437;28;20492;-62
2023/08/19 04:40:22;;;;;;;0.20;0.20;;;;;;;21.17;100.00;99890.16;5086119;28;20036;-63
2023/08/19 04:42:48;;;;;;;0.20;0.20;;;;;;;21.17;100.00;99878.50;5076436;28;20028;-62
2023/08/19 04:45:14;;;;;;;0.20;0.20;;;;;;;21.16;100.00;99884.88;5067641;28;20031;-63
2023/08/19 04:47:39;;;;;;;0.10;0.10;;;;;;;21.16;100.00;99882.16;5068246;28;20432;-62
2023/08/19 04:50:08;;;;;;;0.20;0.20;;;;;;;21.16;100.00;99882.16;5086923;28;20035;-63
2023/08/19 04:52:34;;;;;;;0.20;0.20;;;;;;;21.19;100.00;99882.78;5087673;28;20051;-62
2023/08/19 04:54:59;;;;;;;0.20;0.20;;;;;;;21.21;100.00;99891.66;5085692;28;20464;-62
2023/08/19 04:57:25;;;;;;;0.10;0.10;;;;;;;21.27;100.00;99901.13;5087487;28;20027;-63
2023/08/19 04:59:50;;;;;;;0.10;0.10;;;;;;;21.35;100.00;99898.69;5087287;28;20028;-62
2023/08/19 05:02:16;;;;;;;0.17;0.17;;;;;;;21.37;100.00;99903.00;5070802;28;20388;-63
2023/08/19 05:04:41;;;;;;;0.10;0.10;;;;;;;21.49;100.00;99912.00;5084052;28;20035;-63
2023/08/19 05:07:06;;;;;;;0.17;0.17;;;;;;;21.57;100.00;99914.94;5081490;28;20074;-62
2023/08/19 05:09:32;;;;;;;0.15;0.15;;;;;;;21.64;100.00;99908.06;5068306;28;20040;-62
2023/08/19 05:11:57;;;;;;;0.13;0.13;;;;;;;21.72;100.00;99909.19;5068331;28;20496;-62
2023/08/19 05:14:23;;;;;;;0.20;0.20;;;;;;;21.81;100.00;99902.22;5079563;28;20031;-62
2023/08/19 05:16:48;;;;;;;0.20;0.20;;;;;;;21.90;100.00;99901.47;5085769;28;20027;-63
2023/08/19 05:19:16;;;;;;;0.20;0.20;;;;;;;21.96;100.00;99907.25;5088188;28;20017;-62
2023/08/19 05:21:42;;;;;;;0.10;0.10;;;;;;;22.00;100.00;99907.84;5071079;28;20028;-63
2023/08/19 05:24:10;;;;;;;0.10;0.10;;;;;;;21.98;100.00;99915.22;5068441;28;20404;-63
2023/08/19 05:26:36;;;;;;;0.20;0.20;;;;;;;21.96;100.00;99914.50;5068289;28;20032;-62
2023/08/19 05:29:02;;;;;;;0.10;0.10;;;;;;;21.97;100.00;99914.41;5075193;28;20025;-63
2023/08/19 05:31:28;;;;;;;0.20;0.20;;;;;;;22.07;100.00;99914.50;5087413;28;20024;-63
2023/08/19 05:33:54;;;;;;;0.20;0.20;;;;;;;22.16;100.00;99908.31;5087173;28;20711;-63
2023/08/19 05:36:19;;;;;;;0.20;0.20;;;;;;;22.29;100.00;99906.31;5077505;28;20112;-62
2023/08/19 05:38:44;;;;;;;0.20;0.20;;;;;;;22.43;100.00;99911.50;5067916;28;20492;-62
2023/08/19 05:41:10;;;;;;;0.20;0.20;;;;;;;22.58;100.00;99921.09;5070313;28;20043;-63
2023/08/19 05:43:35;;;;;;;0.20;0.20;;;;;;;22.67;100.00;99914.88;5076616;28;20024;-63
2023/08/19 05:46:03;;;;;;;0.20;0.20;;;;;;;22.77;100.00;99912.25;5087573;28;20036;-62
2023/08/19 05:48:28;;;;;;;0.20;0.20;;;;;;;22.90;100.00;99916.53;5083408;28;20031;-63
2023/08/19 05:50:54;;;;;;;0.20;0.20;;;;;;;23.00;100.00;99922.91;5086659;28;20034;-63
2023/08/19 05:53:19;;;;;;;0.10;0.10;;;;;;;23.10;100.00;99918.41;5086877;28;20026;-63
2023/08/19 05:55:45;;;;;;;0.17;0.17;;;;;;;23.25;100.00;99933.38;5083490;28;20411;-63
2023/08/19 05:58:10;;;;;;;0.10;0.10;;;;;;;23.48;100.00;99933.28;5070859;28;20472;-63
2023/08/19 06:00:35;;;;;;;0.20;0.20;;;;;;;23.59;100.00;99936.78;5048410;28;20028;-63
2023/08/19 06:03:01;;;;;;;0.10;0.10;;;;;;;23.70;100.00;99935.84;5080347;28;20024;-63
2023/08/19 06:05:26;;;;;;;0.10;0.10;;;;;;;23.79;100.00;99943.19;5070663;28;20190;-63
2023/08/19 06:07:52;;;;;;;0.15;0.15;;;;;;;23.98;100.00;99943.31;5067468;28;20028;-63
2023/08/19 06:10:18;;;;;;;0.10;0.10;;;;;;;24.08;100.00;99938.78;5073997;28;20028;-63
2023/08/19 06:12:43;;;;;;;0.20;0.20;;;;;;;24.19;100.00;99936.81;5087525;28;20066;-63
2023/08/19 06:15:09;;;;;;;0.10;0.10;;;;;;;24.26;100.00;99939.84;5089267;28;20476;-63
2023/08/19 06:17:35;;;;;;;0.20;0.20;;;;;;;24.35;100.00;99933.56;5087559;28;20020;-63
2023/08/19 06:20:00;;;;;;;0.13;0.13;;;;;;;24.43;100.00;99945.47;5089178;28;20024;-63
2023/08/19 06:22:26;;;;;;;0.20;0.20;;;;;;;24.51;100.00;99942.09;5087582;28;20020;-63
2023/08/19 06:24:51;;;;;;;0.20;0.20;;;;;;;24.61;100.00;99941.09;5091397;28;20395;-63
2023/08/19 06:27:16;;;;;;;0.13;0.13;;;;;;;24.71;100.00;99941.16;5090331;28;20372;-63
2023/08/19 06:29:42;;;;;;;0.10;0.10;;;;;;;24.82;100.00;99945.59;5089304;28;20036;-64
2023/08/19 06:32:08;;;;;;;0.10;0.10;;;;;;;24.83;100.00;99937.28;5074588;28;20442;-63
2023/08/19 06:34:33;;;;;;;0.10;0.10;;;;;;;24.97;98.72;99945.06;5086445;28;20036;-63
2023/08/19 06:37:01;;;;;;;0.10;0.10;;;;;;;25.05;96.38;99947.91;5078031;28;20048;-63
2023/08/19 06:39:26;;;;;;;0.10;0.10;;;;;;;25.17;95.05;99957.63;5072702;28;20546;-63
2023/08/19 06:42:00;;;;;;;0.10;0.10;;;;;;;25.24;95.08;99953.34;5070789;28;20052;-63
2023/08/19 06:44:28;;;;;;;0.10;0.10;;;;;;;25.37;94.44;99953.94;5075201;28;20428;-64
2023/08/19 06:46:55;;;;;;;0.20;0.20;;;;;;;25.60;93.49;99968.97;5069894;28;20048;-63
2023/08/19 06:49:21;;;;;;;0.10;0.10;;;;;;;25.82;92.26;99971.38;5069762;28;20046;-62
2023/08/19 06:51:47;;;;;;;0.10;0.10;;;;;;;26.07;90.41;99977.19;5086357;28;20675;-62
2023/08/19 06:54:12;;;;;;;0.10;0.10;;;;;;;26.32;87.81;99988.31;5088860;28;20020;-64
2023/08/19 06:56:53;;;;;;;0.10;0.10;;;;;;;26.44;85.77;99989.81;5061298;28;20032;-64
2023/08/19 06:59:34;;;;;;;0.10;0.10;;;;;;;26.48;85.67;99998.56;5070635;28;20024;-64
2023/08/19 07:02:02;;;;;;;0.10;0.10;;;;;;;26.46;85.88;99993.25;5070396;28;20456;-64
2023/08/19 07:04:29;;;;;;;0.10;0.10;;;;;;;26.44;86.42;99991.69;5084382;28;20028;-63
2023/08/19 07:06:57;;;;;;;0.10;0.10;;;;;;;26.55;86.15;99988.75;5073219;28;20039;-64
2023/08/19 07:09:23;;;;;;;0.10;0.10;;;;;;;26.86;86.07;99992.91;5069898;28;20028;-63
2023/08/19 07:11:53;;;;;;;0.00;0.00;;;;;;;27.18;81.20;99991.38;5071577;28;20518;-64
2023/08/19 07:14:19;;;;;;;0.10;0.10;;;;;;;27.57;78.45;99997.41;5084448;28;20735;-64
2023/08/19 07:16:50;;;;;;;0.10;0.10;;;;;;;28.08;76.45;99992.03;5078166;28;20475;-64
2023/08/19 07:19:21;;;;;;;0.10;0.10;;;;;;;28.47;74.69;99997.88;5069427;28;20817;-64
2023/08/19 07:21:47;;;;;;;0.10;0.10;;;;;;;29.02;72.64;99998.28;5071356;28;20032;-64
2023/08/19 07:24:13;;;;;;;0.10;0.10;;;;;;;29.41;70.37;99996.66;5089720;28;20371;-64
2023/08/19 07:26:40;;;;;;;0.10;0.10;;;;;;;29.77;67.14;100000.81;5088990;28;20059;-63
2023/08/19 07:29:06;;;;;;;0.00;0.00;;;;;;;30.14;66.03;99992.88;5076076;28;20035;-64
2023/08/19 07:31:31;;;;;;;0.10;0.10;;;;;;;30.45;64.34;99993.84;5069896;28;20032;-64
2023/08/19 07:33:58;;;;;;;0.10;0.10;;;;;;;30.45;61.54;99998.47;5080148;28;20020;-64
2023/08/19 07:36:25;;;;;;;0.00;0.00;;;;;;;30.34;59.78;99998.84;5088601;28;20093;-64
2023/08/19 07:38:51;;;;;;;0.00;0.00;;;;;;;30.21;61.14;99998.53;5087793;28;20031;-64
2023/08/19 07:41:19;;;;;;;0.00;0.00;;;;;;;30.21;60.22;99999.38;5088999;28;20414;-63
2023/08/19 07:43:45;;;;;;;0.10;0.10;;;;;;;30.33;60.74;100011.72;5077133;28;20103;-64
2023/08/19 07:46:15;;;;;;;0.00;0.00;;;;;;;30.49;59.00;100008.94;5068472;28;20506;-62
2023/08/19 07:48:41;;;;;;;0.00;0.00;;;;;;;30.75;58.58;100006.78;5076104;28;20030;-64
2023/08/19 07:51:07;;;;;;;0.00;0.00;;;;;;;31.26;57.70;100012.69;5073896;28;20448;-64
2023/08/19 07:53:32;;;;;;;0.00;0.00;;;;;;;31.61;57.88;100010.25;5069369;28;20028;-64
2023/08/19 07:55:57;;;;;;;0.00;0.00;;;;;;;31.77;55.81;100020.25;5072241;28;20024;-63
2023/08/19 07:58:23;;;;;;;0.00;0.00;;;;;;;31.58;56.00;100012.50;5069307;28;20024;-64
2023/08/19 08:00:48;;;;;;;0.00;0.00;;;;;;;31.41;57.21;100013.66;5072105;28;20027;-63
2023/08/19 08:03:13;;;;;;;0.00;0.00;;;;;;;30.99;56.15;100013.22;5072915;28;20107;-63
2023/08/19 08:05:39;;;;;;;0.00;0.00;;;;;;;30.56;58.14;100012.69;5088765;28;20099;-63
2023/08/19 08:08:05;;;;;;;0.00;0.00;;;;;;;30.47;60.29;100016.50;5088854;28;20016;-64
2023/08/19 08:10:30;;;;;;;0.00;0.00;;;;;;;30.42;61.25;100016.16;5081520;28;20048;-64
2023/08/19 08:12:55;;;;;;;0.00;0.00;;;;;;;30.40;62.52;100015.47;5086117;28;20044;-63
2023/08/19 08:15:21;;;;;;;0.10;0.10;;;;;;;30.19;61.41;100017.91;5071400;28;20395;-63
2023/08/19 08:17:46;;;;;;;0.00;0.00;;;;;;;30.33;62.16;100014.47;5069233;28;20062;-64
2023/08/19 08:20:12;;;;;;;0.00;0.00;;;;;;;30.45;63.66;100013.06;5071744;28;20081;-65
2023/08/19 08:22:37;;;;;;;0.10;0.10;;;;;;;30.50;63.09;100020.75;5088086;28;20027;-65
2023/08/19 08:25:09;;;;;;;0.00;0.00;;;;;;;30.55;62.10;100024.69;5083529;28;20524;-65
2023/08/19 08:27:34;;;;;;;0.00;0.00;;;;;;;30.36;60.43;100030.56;5067995;28;20468;-65
2023/08/19 08:30:00;;;;;;;0.00;0.00;;;;;;;30.49;62.18;100017.19;5067165;28;20078;-65
2023/08/19 08:32:26;;;;;;;0.00;0.00;;;;;;;30.56;62.16;100018.16;5069998;28;20040;-65
2023/08/19 08:34:51;;;;;;;0.00;0.00;;;;;;;30.66;63.49;100020.69;5084735;28;20084;-65
2023/08/19 08:37:17;;;;;;;0.00;0.00;;;;;;;30.66;59.61;100016.06;5078960;28;20044;-64
2023/08/19 08:39:42;;;;;;;0.00;0.00;;;;;;;30.48;60.59;100020.94;5066409;28;20111;-65
2023/08/19 08:42:08;;;;;;;0.00;0.00;;;;;;;30.46;62.69;99998.28;5085000;28;20035;-64
2023/08/19 08:44:36;;;;;;;0.40;0.40;;;;;;;30.70;64.31;100016.56;5068562;28;20544;-64
2023/08/19 08:47:02;;;;;;;0.00;0.00;;;;;;;30.83;67.02;100012.25;5066328;28;20032;-64
2023/08/19 08:49:29;;;;;;;1.08;1.00;;;;;;;30.84;60.14;100008.47;5076094;28;20650;-65
2023/08/19 08:51:56;;;;;;;0.00;0.00;;;;;;;30.76;57.64;100013.97;5065009;28;20055;-65
2023/08/19 08:54:22;;;;;;;0.00;0.00;;;;;;;30.76;57.17;100015.84;5068816;28;20131;-65
2023/08/19 08:56:48;;;;;;;0.00;0.00;;;;;;;30.85;57.70;100021.19;5086988;28;20024;-65
2023/08/19 08:59:14;;;;;;;0.00;0.00;;;;;;;30.92;57.76;100021.31;5074369;28;20107;-65
2023/08/19 09:01:43;;;;;;;0.00;0.00;;;;;;;31.07;58.14;100024.16;5067355;28;20039;-65
2023/08/19 09:04:10;;;;;;;0.00;0.00;;;;;;;31.26;58.83;100034.69;5077525;28;20028;-65
2023/08/19 09:06:37;;;;;;;0.00;0.00;;;;;;;31.66;58.35;100042.69;5068209;28;20546;-66
2023/08/19 09:09:10;;;;;;;0.00;0.00;;;;;;;32.07;57.24;100033.09;5068107;28;20037;-66
2023/08/19 09:11:38;;;;;;;0.03;0.03;;;;;;;32.68;55.94;100029.16;5085708;28;20523;-67
2023/08/19 09:14:14;;;;;;;0.57;0.57;;;;;;;33.35;52.48;100034.31;5088282;28;20030;-67
2023/08/19 09:16:39;;;;;;;0.00;0.00;;;;;;;34.09;52.27;100032.09;5088404;28;20059;-66
2023/08/19 09:19:04;;;;;;;0.00;0.00;;;;;;;34.92;47.97;100038.47;5083858;28;20054;-67
2023/08/19 09:21:31;;;;;;;0.00;0.00;;;;;;;35.54;47.24;100038.28;5067554;28;20035;-66
2023/08/19 09:23:59;;;;;;;0.00;0.00;;;;;;;36.22;44.60;100026.00;5067531;28;20084;-67
2023/08/19 09:26:24;;;;;;;0.00;0.00;;;;;;;36.95;44.23;100032.09;5069386;28;20121;-67
2023/08/19 09:28:50;;;;;;;0.00;0.00;;;;;;;37.62;41.64;100022.38;5068547;28;20474;-67
2023/08/19 09:31:20;;;;;;;0.00;0.00;;;;;;;37.27;40.88;100030.28;5078585;28;20064;-66
2023/08/19 09:33:49;;;;;;;0.00;0.00;;;;;;;36.34;40.39;100032.66;5075011;28;20070;-67
2023/08/19 09:36:14;;;;;;;0.00;0.00;;;;;;;35.79;42.92;100042.16;5084999;28;20106;-66
2023/08/19 09:38:41;;;;;;;0.00;0.00;;;;;;;35.32;46.98;100032.00;5072960;28;20031;-67
2023/08/19 09:41:06;;;;;;;0.00;0.00;;;;;;;34.73;49.85;100030.03;5085793;28;20667;-67
2023/08/19 09:43:33;;;;;;;0.00;0.00;;;;;;;34.39;49.38;100039.13;5076937;28;20057;-66
2023/08/19 09:46:00;;;;;;;0.00;0.00;;;;;;;33.99;51.03;100042.63;5070026;28;20032;-67
2023/08/19 09:48:26;;;;;;;0.00;0.00;;;;;;;33.81;52.31;100045.84;5068123;28;20119;-66
2023/08/19 09:50:51;;;;;;;0.00;0.00;;;;;;;33.65;53.84;100039.75;5071885;28;20776;-65
2023/08/19 09:53:18;;;;;;;0.00;0.00;;;;;;;33.60;53.63;100047.75;5074334;28;20045;-66
2023/08/19 09:55:50;;;;;;;0.00;0.00;;;;;;;33.35;54.85;100050.88;5086436;28;20028;-66
2023/08/19 09:58:16;;;;;;;0.00;0.00;;;;;;;33.22;54.68;100053.47;5074296;28;20388;-66
2023/08/19 10:00:42;;;;;;;0.00;0.00;;;;;;;33.23;55.15;100057.06;5071712;28;20475;-66
2023/08/19 10:03:08;;;;;;;0.00;0.00;;;;;;;33.14;54.76;100053.59;5075173;28;20122;-66
2023/08/19 10:05:41;;;;;;;0.00;0.00;;;;;;;33.24;54.08;100056.91;5088799;28;20123;-66
2023/08/19 10:08:18;;;;;;;0.00;0.00;;;;;;;33.16;55.03;100056.16;5079512;28;20115;-66
2023/08/19 10:10:45;;;;;;;0.00;0.00;;;;;;;33.15;53.66;100059.94;5078129;28;20019;-65
2023/08/19 10:13:12;;;;;;;0.00;0.00;;;;;;;33.06;54.85;100055.59;5089407;28;20031;-66
2023/08/19 10:15:41;;;;;;;0.00;0.00;;;;;;;33.15;54.01;100066.31;5089424;28;20468;-66
2023/08/19 10:18:22;;;;;;;0.00;0.00;;;;;;;33.28;54.64;100069.22;5091084;28;20496;-66
2023/08/19 10:20:53;;;;;;;0.00;0.00;;;;;;;33.41;54.10;100070.44;5090974;28;20415;-66
2023/08/19 10:23:21;;;;;;;0.00;0.00;;;;;;;33.44;54.81;100076.47;5082953;28;20041;-66
2023/08/19 10:25:47;;;;;;;0.00;0.00;;;;;;;33.66;55.75;100069.06;5069517;28;20024;-65
2023/08/19 10:28:21;;;;;;;0.00;0.00;;;;;;;33.70;55.13;100070.38;5069683;28;20756;-66
2023/08/19 10:31:03;;;;;;;0.00;0.00;;;;;;;33.90;55.40;100065.91;5071489;28;20069;-66
2023/08/19 10:33:37;;;;;;;0.00;0.00;;;;;;;34.00;54.35;100067.31;5075280;28;20012;-66
2023/08/19 10:36:04;;;;;;;0.00;0.00;;;;;;;34.05;55.39;100070.34;5074808;28;20077;-66
2023/08/19 10:38:53;;;;;;;0.00;0.00;;;;;;;33.91;54.53;100064.84;5068325;28;20024;-66
2023/08/19 10:41:37;;;;;;;0.00;0.00;;;;;;;33.90;53.35;100065.91;5069956;28;20070;-66
2023/08/19 10:44:07;;;;;;;0.00;0.00;;;;;;;33.93;53.63;100076.56;5074619;28;20028;-66
2023/08/19 10:46:40;;;;;;;0.00;0.00;;;;;;;33.99;51.95;100078.53;5091192;28;20032;-66
2023/08/19 10:49:12;;;;;;;0.00;0.00;;;;;;;33.98;52.03;100077.69;5091259;28;20068;-66
2023/08/19 10:51:51;;;;;;;0.00;0.00;;;;;;;34.12;50.28;100081.44;5088689;28;20028;-66
2023/08/19 10:54:43;;;;;;;0.00;0.00;;;;;;;34.28;51.37;100089.44;5072085;28;20035;-66
2023/08/19 10:57:25;;;;;;;0.00;0.00;;;;;;;34.56;49.98;100090.31;5085071;28;20044;-66
2023/08/19 10:59:59;;;;;;;0.00;0.00;;;;;;;34.81;50.37;100093.47;5088848;28;20028;-66
2023/08/19 11:02:27;;;;;;;0.00;0.00;;;;;;;35.03;48.54;100093.19;5090417;28;20098;-66
2023/08/19 11:04:53;;;;;;;0.00;0.00;;;;;;;35.12;47.34;100094.75;5090927;28;20032;-66
2023/08/19 11:07:20;;;;;;;0.00;0.00;;;;;;;35.23;48.69;100098.81;5087081;28;20106;-65
2023/08/19 11:09:50;;;;;;;0.00;0.00;;;;;;;34.98;47.89;100087.41;5077604;28;20043;-66
2023/08/19 11:12:20;;;;;;;0.00;0.00;;;;;;;34.90;47.79;100081.19;5072516;28;20372;-66
2023/08/19 11:14:50;;;;;;;0.00;0.00;;;;;;;34.98;45.08;100090.19;5070727;28;20074;-69
2023/08/19 11:17:16;;;;;;;0.00;0.00;;;;;;;35.10;45.12;100088.53;5071388;28;20107;-65
2023/08/19 11:19:43;;;;;;;0.00;0.00;;;;;;;34.76;44.39;100085.78;5087897;28;20029;-66
2023/08/19 11:22:13;;;;;;;0.00;0.00;;;;;;;34.79;45.66;100084.50;5074761;28;20032;-66
2023/08/19 11:24:40;;;;;;;0.00;0.00;;;;;;;34.81;47.46;100077.69;5082975;28;20024;-66
2023/08/19 11:27:06;;;;;;;0.00;0.00;;;;;;;34.89;45.89;100085.84;5088042;28;20636;-65